Time;durP1;ratioP1;P1;durP2;ratioP2;P2;SDS_P1;SDS_P2;PMS_P1;PMS_P2;Temp;Humidity;BMP_temperature;BMP_pressure;BME280_temperature;BME280_humidity;BME280_pressure;Samples;Min_cycle;Max_cycle;Signal;HPM_P1;HPM_P2
2023/02/05 09:07:19;;;;;;;4.77;4.20;;;14.30;45.00;;;;;;5399966;23;20506;-67
2023/02/05 09:09:45;;;;;;;4.90;4.50;;;14.30;45.00;;;;;;4937532;29;20419;-67
2023/02/05 09:12:11;;;;;;;5.10;4.17;;;14.30;45.00;;;;;;4937402;29;20174;-64
2023/02/05 09:14:37;;;;;;;4.23;3.83;;;14.30;44.90;;;;;;4937604;29;20205;-63
2023/02/05 09:17:05;;;;;;;4.53;4.13;;;14.30;44.90;;;;;;4937448;29;20187;-66
2023/02/05 09:19:34;;;;;;;5.30;4.63;;;14.30;44.90;;;;;;4951068;23;20502;-63
2023/02/05 09:21:59;;;;;;;8.63;5.67;;;14.30;44.90;;;;;;4936460;29;21013;-62
2023/02/05 09:24:25;;;;;;;16.00;6.13;;;14.30;43.10;;;;;;4937600;29;20470;-62
2023/02/05 09:26:51;;;;;;;6.77;5.90;;;14.20;41.20;;;;;;4937753;29;20628;-63
2023/02/05 09:29:16;;;;;;;7.27;5.20;;;14.20;41.90;;;;;;4937660;29;20194;-63
2023/02/05 09:31:42;;;;;;;6.43;5.33;;;14.10;42.80;;;;;;4937623;29;20287;-63
2023/02/05 09:34:08;;;;;;;7.90;5.67;;;14.10;43.10;;;;;;4937278;29;20553;-63
2023/02/05 09:36:33;;;;;;;5.10;4.50;;;14.10;43.30;;;;;;4937404;29;20545;-64
2023/02/05 09:38:59;;;;;;;4.73;3.90;;;14.10;43.40;;;;;;4937690;29;20278;-63
2023/02/05 09:41:31;;;;;;;6.60;5.00;;;14.20;43.60;;;;;;4937461;29;20532;-63
2023/02/05 09:44:19;;;;;;;5.37;4.40;;;14.30;43.60;;;;;;4937394;29;20206;-63
2023/02/05 09:47:04;;;;;;;5.77;4.60;;;14.40;43.60;;;;;;4936738;29;20514;-63
2023/02/05 09:49:41;;;;;;;7.10;4.37;;;14.60;43.60;;;;;;4937525;29;20434;-63
2023/02/05 09:52:34;;;;;;;5.33;4.57;;;14.70;43.40;;;;;;4937451;29;20418;-62
2023/02/05 09:55:31;;;;;;;6.33;4.60;;;14.90;43.30;;;;;;4937296;29;20414;-63
2023/02/05 09:58:06;;;;;;;4.50;4.10;;;15.00;43.10;;;;;;4923709;29;20427;-62
2023/02/05 10:00:42;;;;;;;5.57;5.00;;;15.20;43.10;;;;;;4937280;29;20430;-63
2023/02/05 10:03:24;;;;;;;5.93;4.50;;;15.30;42.90;;;;;;4937271;29;20469;-63
2023/02/05 10:06:08;;;;;;;8.37;5.33;;;15.40;42.80;;;;;;4936950;29;20414;-62
2023/02/05 10:08:54;;;;;;;4.63;3.87;;;15.50;42.70;;;;;;4936834;29;20399;-63
2023/02/05 10:11:32;;;;;;;6.77;4.63;;;15.60;42.70;;;;;;4926684;29;20957;-63
2023/02/05 10:14:14;;;;;;;5.33;4.37;;;15.70;42.50;;;;;;4937000;29;20422;-63
2023/02/05 10:16:53;;;;;;;4.13;3.80;;;15.80;42.50;;;;;;4937059;29;20741;-62
2023/02/05 10:19:49;;;;;;;4.20;3.60;;;15.80;42.40;;;;;;4935250;29;20545;-62
2023/02/05 10:22:41;;;;;;;6.57;4.10;;;15.90;42.40;;;;;;4936657;29;20425;-63
2023/02/05 10:25:47;;;;;;;4.80;4.30;;;16.00;42.90;;;;;;4937129;29;20454;-63
2023/02/05 10:28:36;;;;;;;4.13;3.73;;;16.10;42.60;;;;;;4929677;29;20414;-63
2023/02/05 10:31:30;;;;;;;7.27;4.77;;;16.10;42.50;;;;;;4935149;29;20523;-63
2023/02/05 10:34:14;;;;;;;4.63;4.23;;;16.20;42.50;;;;;;4935254;29;20491;-63
2023/02/05 10:36:40;;;;;;;5.33;4.03;;;16.20;42.60;;;;;;4936982;29;20903;-63
2023/02/05 10:39:14;;;;;;;4.60;4.20;;;16.20;42.50;;;;;;4936531;29;20518;-62
2023/02/05 10:42:01;;;;;;;4.50;3.90;;;16.30;42.40;;;;;;4935358;29;20490;-63
2023/02/05 10:44:35;;;;;;;5.53;3.70;;;16.30;42.20;;;;;;4936506;29;20458;-63
2023/02/05 10:47:18;;;;;;;5.63;4.10;;;16.40;42.30;;;;;;4935970;29;20403;-63
2023/02/05 10:49:53;;;;;;;3.80;3.40;;;16.50;42.30;;;;;;4936610;29;20426;-63
2023/02/05 10:52:19;;;;;;;4.90;4.17;;;16.40;42.10;;;;;;4936602;29;20421;-63
2023/02/05 10:54:45;;;;;;;4.40;4.00;;;16.50;42.10;;;;;;4936574;29;20493;-63
2023/02/05 10:57:19;;;;;;;4.30;3.83;;;16.50;42.00;;;;;;4936492;29;20231;-63
2023/02/05 10:59:56;;;;;;;5.17;4.63;;;16.50;42.00;;;;;;4936535;29;20427;-63
2023/02/05 11:02:36;;;;;;;4.73;3.80;;;16.60;42.00;;;;;;4936550;29;20423;-63
2023/02/05 11:05:06;;;;;;;4.73;4.33;;;16.60;42.00;;;;;;4936792;29;20396;-62
2023/02/05 11:07:38;;;;;;;3.80;3.37;;;16.60;42.10;;;;;;4936762;29;20504;-63
2023/02/05 11:10:15;;;;;;;5.23;4.30;;;16.60;42.10;;;;;;4936207;29;21104;-63
2023/02/05 11:12:43;;;;;;;4.80;3.87;;;16.60;42.00;;;;;;4936495;29;20786;-63
2023/02/05 11:15:28;;;;;;;4.93;4.53;;;16.60;42.00;;;;;;4936628;29;20493;-63
2023/02/05 11:17:59;;;;;;;4.90;4.40;;;16.60;42.00;;;;;;4936625;29;20781;-63
2023/02/05 11:20:31;;;;;;;4.77;4.30;;;16.60;42.00;;;;;;4936379;29;20469;-63
2023/02/05 11:23:17;;;;;;;5.00;4.50;;;16.50;41.90;;;;;;4937244;29;20462;-63
2023/02/05 11:25:54;;;;;;;4.87;4.47;;;16.60;42.00;;;;;;4937577;29;20414;-63
2023/02/05 11:28:31;;;;;;;6.60;5.00;;;16.50;42.00;;;;;;4937048;29;20446;-65
2023/02/05 11:31:08;;;;;;;6.40;5.07;;;16.50;42.00;;;;;;4937043;29;20419;-63
2023/02/05 11:33:34;;;;;;;5.10;4.60;;;16.50;42.00;;;;;;4936673;29;20588;-62
2023/02/05 11:36:01;;;;;;;6.03;4.53;;;16.50;42.00;;;;;;4936641;29;20460;-64
2023/02/05 11:38:41;;;;;;;4.97;4.50;;;16.50;42.10;;;;;;4936554;29;20179;-63
2023/02/05 11:41:08;;;;;;;5.80;4.87;;;16.50;42.10;;;;;;4936207;29;20427;-63
2023/02/05 11:43:37;;;;;;;4.60;4.10;;;16.50;42.20;;;;;;4936235;29;20493;-63
2023/02/05 11:46:07;;;;;;;4.90;4.40;;;16.50;42.20;;;;;;4936257;29;20433;-63
2023/02/05 11:48:40;;;;;;;5.47;4.53;;;16.40;42.10;;;;;;4936379;29;20443;-63
2023/02/05 11:51:10;;;;;;;5.07;4.57;;;16.40;42.20;;;;;;4936432;29;20434;-63
2023/02/05 11:53:37;;;;;;;4.40;3.90;;;16.40;42.20;;;;;;4936169;29;20414;-62
2023/02/05 11:56:09;;;;;;;6.37;4.83;;;16.40;42.20;;;;;;4936160;29;20484;-63
2023/02/05 11:58:35;;;;;;;4.70;4.20;;;16.40;42.20;;;;;;4937364;29;20422;-63
2023/02/05 12:01:19;;;;;;;4.90;3.90;;;16.40;42.20;;;;;;4939320;29;20494;-64
2023/02/05 12:04:00;;;;;;;4.50;4.10;;;16.40;42.20;;;;;;4939622;29;20940;-63
2023/02/05 12:06:34;;;;;;;4.43;3.87;;;16.40;42.30;;;;;;4938233;29;20402;-62
2023/02/05 12:08:59;;;;;;;4.80;4.17;;;16.40;42.30;;;;;;4939248;29;20407;-64
2023/02/05 12:12:02;;;;;;;4.90;4.37;;;16.40;42.30;;;;;;4939393;29;20506;-64
2023/02/05 12:14:48;;;;;;;5.23;4.20;;;16.40;42.30;;;;;;4939270;29;20717;-62
2023/02/05 12:17:25;;;;;;;4.43;4.00;;;16.40;42.40;;;;;;4938815;29;20548;-64
2023/02/05 12:19:57;;;;;;;5.90;3.63;;;16.30;42.30;;;;;;4938760;29;20462;-63
2023/02/05 12:22:28;;;;;;;4.20;3.80;;;16.30;42.40;;;;;;4938955;29;20502;-63
2023/02/05 12:25:13;;;;;;;5.03;4.17;;;16.30;42.40;;;;;;4938709;29;20770;-63
2023/02/05 12:28:01;;;;;;;3.90;3.50;;;16.40;42.40;;;;;;4938895;29;20423;-62
2023/02/05 12:30:29;;;;;;;4.63;4.10;;;16.30;42.40;;;;;;4938184;29;20442;-63
2023/02/05 12:33:17;;;;;;;4.30;3.60;;;16.30;42.40;;;;;;4937224;29;20779;-63
2023/02/05 12:35:50;;;;;;;5.43;3.80;;;16.40;42.40;;;;;;4938760;29;20417;-63
2023/02/05 12:38:42;;;;;;;4.60;4.20;;;16.30;42.40;;;;;;4938774;29;20419;-64
2023/02/05 12:41:30;;;;;;;3.67;3.37;;;16.30;42.40;;;;;;4938808;29;21097;-64
2023/02/05 12:44:23;;;;;;;4.30;3.70;;;16.40;42.50;;;;;;4910155;29;20466;-64
2023/02/05 12:47:12;;;;;;;3.80;3.27;;;16.30;42.40;;;;;;4938560;29;20779;-64
2023/02/05 12:49:58;;;;;;;4.23;3.83;;;16.40;42.50;;;;;;4938814;29;20763;-63
2023/02/05 12:52:52;;;;;;;4.60;3.97;;;16.30;42.40;;;;;;4938820;29;20418;-62
2023/02/05 12:55:25;;;;;;;4.30;3.70;;;16.30;42.50;;;;;;4938673;29;20782;-63
2023/02/05 12:58:03;;;;;;;4.10;3.70;;;16.30;42.50;;;;;;4938820;29;20414;-63
2023/02/05 13:00:40;;;;;;;3.87;3.57;;;16.40;42.60;;;;;;4938726;29;20442;-63
2023/02/05 13:03:16;;;;;;;3.73;3.37;;;16.30;42.50;;;;;;4938461;29;20454;-63
2023/02/05 13:05:55;;;;;;;4.10;3.70;;;16.30;42.50;;;;;;4936954;29;20403;-62
2023/02/05 13:09:12;;;;;;;3.73;3.30;;;16.40;42.60;;;;;;4936973;29;20421;-61
2023/02/05 13:12:06;;;;;;;3.87;3.20;;;16.40;42.60;;;;;;4886743;29;20422;-63
2023/02/05 13:15:01;;;;;;;4.53;3.83;;;16.30;42.50;;;;;;4935276;29;20441;-62
2023/02/05 13:17:32;;;;;;;3.47;2.90;;;16.30;42.60;;;;;;4938280;29;20497;-62
2023/02/05 13:20:01;;;;;;;3.80;3.30;;;16.30;42.60;;;;;;4937802;29;20477;-62
2023/02/05 13:28:42;;;;;;;3.90;3.07;;;16.30;43.10;;;;;;4938085;29;20925;-63
2023/02/05 13:31:18;;;;;;;3.57;3.27;;;16.40;42.60;;;;;;4938028;29;20518;-61
2023/02/05 13:33:44;;;;;;;3.50;3.20;;;16.40;42.60;;;;;;4937913;29;20430;-63
2023/02/05 13:36:28;;;;;;;4.67;3.20;;;16.40;42.60;;;;;;4937959;29;20778;-63
2023/02/05 13:39:05;;;;;;;3.80;3.10;;;16.40;42.60;;;;;;4937626;29;20419;-64
2023/02/05 13:41:41;;;;;;;3.43;2.90;;;16.30;42.50;;;;;;4937913;29;20459;-63
2023/02/05 13:44:27;;;;;;;3.67;3.10;;;16.30;42.50;;;;;;4937676;29;20828;-64
2023/02/05 13:47:43;;;;;;;4.67;3.20;;;16.40;42.50;;;;;;4937780;29;20502;-64
2023/02/05 13:50:53;;;;;;;3.33;2.57;;;16.40;42.50;;;;;;4924869;29;20533;-64
2023/02/05 13:54:09;;;;;;;5.33;3.30;;;16.40;42.60;;;;;;4937738;29;21048;-61
2023/02/05 13:57:05;;;;;;;3.57;3.20;;;16.40;42.60;;;;;;4937374;29;20450;-61
2023/02/05 13:59:41;;;;;;;4.10;3.17;;;16.40;42.70;;;;;;4937106;29;20429;-61
2023/02/05 14:02:37;;;;;;;3.20;2.90;;;16.40;42.60;;;;;;4937156;29;20422;-60
2023/02/05 14:05:04;;;;;;;3.40;3.10;;;16.40;42.60;;;;;;4936999;29;20392;-59
2023/02/05 14:07:45;;;;;;;4.27;3.40;;;16.40;42.60;;;;;;4937170;29;20549;-61
2023/02/05 14:10:34;;;;;;;3.80;3.10;;;16.40;42.70;;;;;;4937060;29;20441;-61
2023/02/05 14:13:23;;;;;;;3.80;3.50;;;16.40;42.60;;;;;;4937147;29;20457;-64
2023/02/05 14:15:49;;;;;;;4.87;3.67;;;16.40;42.60;;;;;;4937096;29;20475;-63
2023/02/05 14:18:40;;;;;;;3.77;3.40;;;16.40;42.60;;;;;;4937019;29;20931;-62
2023/02/05 14:21:30;;;;;;;3.40;3.10;;;16.40;42.60;;;;;;4936059;29;20993;-63
2023/02/05 14:24:37;;;;;;;4.73;3.30;;;16.40;42.60;;;;;;4937247;29;20879;-64
2023/02/05 14:27:18;;;;;;;4.60;3.47;;;16.40;42.60;;;;;;4908563;29;20957;-62
2023/02/05 14:29:48;;;;;;;3.50;3.20;;;16.40;42.60;;;;;;4935834;29;20442;-61
2023/02/05 14:32:29;;;;;;;4.67;3.60;;;16.50;42.70;;;;;;4936977;29;20478;-63
2023/02/05 14:35:20;;;;;;;3.97;3.57;;;16.50;43.00;;;;;;4936706;29;20782;-63
2023/02/05 14:37:49;;;;;;;3.83;3.50;;;16.40;42.90;;;;;;4928872;29;20415;-61
2023/02/05 14:40:22;;;;;;;3.90;3.50;;;16.40;42.80;;;;;;4936793;29;20471;-64
2023/02/05 14:42:51;;;;;;;4.20;3.77;;;16.40;42.80;;;;;;4936536;29;20458;-62
2023/02/05 14:45:20;;;;;;;5.37;3.57;;;16.40;42.80;;;;;;4937009;29;20411;-62
2023/02/05 14:47:45;;;;;;;3.50;3.20;;;16.50;42.80;;;;;;4936840;29;20414;-63
2023/02/05 14:50:23;;;;;;;3.50;3.20;;;16.40;42.70;;;;;;4936249;29;20442;-63
2023/02/05 14:52:57;;;;;;;4.13;3.10;;;16.50;42.80;;;;;;4936448;29;20175;-63
2023/02/05 14:55:42;;;;;;;4.50;3.80;;;16.50;42.80;;;;;;4936925;29;20890;-63
2023/02/05 14:58:29;;;;;;;4.37;3.97;;;16.50;42.80;;;;;;4936374;29;20398;-64
2023/02/05 15:01:32;;;;;;;3.53;3.10;;;16.50;42.80;;;;;;4936019;29;20442;-65
2023/02/05 15:04:00;;;;;;;4.00;3.50;;;16.50;43.10;;;;;;4936392;29;20618;-64
2023/02/05 15:06:38;;;;;;;3.27;2.97;;;16.40;43.40;;;;;;4936662;29;20425;-66
2023/02/05 15:09:12;;;;;;;5.67;3.70;;;16.40;43.40;;;;;;4936580;29;20426;-67
2023/02/05 15:11:44;;;;;;;3.83;3.43;;;16.40;43.30;;;;;;4936492;29;20406;-64
2023/02/05 15:14:19;;;;;;;5.73;3.30;;;16.40;43.30;;;;;;4936343;29;20446;-65
2023/02/05 15:16:46;;;;;;;3.53;3.20;;;16.40;43.30;;;;;;4936689;29;20486;-65
2023/02/05 15:19:15;;;;;;;7.53;4.07;;;16.40;43.30;;;;;;4936405;29;20419;-64
2023/02/05 15:21:46;;;;;;;3.40;3.10;;;16.40;43.60;;;;;;4934954;29;20958;-64
2023/02/05 15:24:23;;;;;;;7.33;4.37;;;16.50;44.80;;;;;;4936184;29;20466;-63
2023/02/05 15:26:55;;;;;;;4.70;3.10;;;16.50;46.00;;;;;;4935285;29;20816;-64
2023/02/05 15:29:36;;;;;;;5.80;3.30;;;16.50;46.10;;;;;;4936635;29;20518;-64
2023/02/05 15:32:13;;;;;;;4.20;3.43;;;16.50;46.20;;;;;;4937069;29;20450;-63
2023/02/05 15:34:46;;;;;;;8.13;3.60;;;16.50;46.10;;;;;;4940106;29;20967;-63
2023/02/05 15:37:22;;;;;;;4.93;3.50;;;16.50;45.80;;;;;;4940452;29;20433;-63
2023/02/05 15:40:12;;;;;;;4.20;3.60;;;16.60;45.80;;;;;;4939283;29;20966;-62
2023/02/05 15:42:44;;;;;;;4.73;2.87;;;16.60;46.50;;;;;;4939619;29;20930;-63
2023/02/05 15:45:30;;;;;;;4.07;3.03;;;16.60;46.70;;;;;;4940124;29;20402;-65
2023/02/05 15:48:10;;;;;;;5.43;3.43;;;16.60;46.40;;;;;;4940023;29;20425;-64
2023/02/05 15:50:41;;;;;;;4.10;3.70;;;16.70;46.30;;;;;;4939724;29;20434;-64
2023/02/05 15:53:29;;;;;;;4.00;3.57;;;16.70;46.10;;;;;;4938648;29;20427;-64
2023/02/05 15:55:56;;;;;;;4.30;3.33;;;16.70;45.90;;;;;;4939359;29;20509;-65
2023/02/05 15:58:25;;;;;;;6.17;4.10;;;16.70;45.70;;;;;;4939634;29;20474;-65
2023/02/05 16:00:52;;;;;;;4.73;3.47;;;16.70;45.60;;;;;;4939335;29;20915;-64
2023/02/05 16:03:32;;;;;;;5.50;3.43;;;16.70;45.80;;;;;;4939294;29;20462;-64
2023/02/05 16:05:59;;;;;;;4.90;4.07;;;16.70;45.70;;;;;;4939726;29;20481;-64
2023/02/05 16:08:27;;;;;;;5.57;4.60;;;16.70;45.60;;;;;;4939626;29;20415;-62
2023/02/05 16:11:04;;;;;;;4.53;4.03;;;16.70;45.50;;;;;;4938397;29;20435;-64
2023/02/05 16:13:29;;;;;;;4.77;3.37;;;16.70;45.40;;;;;;4938393;29;20446;-63
2023/02/05 16:15:55;;;;;;;4.80;4.00;;;16.70;45.30;;;;;;4939281;29;20461;-63
2023/02/05 16:18:39;;;;;;;4.90;3.40;;;16.70;45.20;;;;;;4939367;29;20286;-65
2023/02/05 16:21:28;;;;;;;4.83;3.83;;;16.80;45.10;;;;;;4938873;29;20222;-65
2023/02/05 16:24:08;;;;;;;4.27;3.70;;;16.80;45.40;;;;;;4921762;29;20455;-64
2023/02/05 16:26:38;;;;;;;3.90;3.50;;;16.90;45.90;;;;;;4938793;29;20395;-61
2023/02/05 16:29:06;;;;;;;5.07;3.97;;;16.90;46.10;;;;;;4938804;29;20399;-62
2023/02/05 16:31:35;;;;;;;4.77;3.60;;;17.00;46.00;;;;;;4939327;29;20403;-62
2023/02/05 16:34:16;;;;;;;6.13;4.27;;;17.00;46.00;;;;;;4939101;29;20418;-63
2023/02/05 16:36:46;;;;;;;4.47;3.90;;;17.10;46.00;;;;;;4938870;29;20418;-64
2023/02/05 16:39:41;;;;;;;5.00;3.83;;;17.10;45.70;;;;;;4938259;29;20942;-63
2023/02/05 16:42:14;;;;;;;4.20;3.60;;;17.20;45.80;;;;;;4933126;29;20423;-65
2023/02/05 16:44:48;;;;;;;6.67;3.70;;;17.20;45.60;;;;;;4937947;29;20450;-64
2023/02/05 16:47:15;;;;;;;4.40;3.70;;;17.20;45.50;;;;;;4938578;29;20396;-64
2023/02/05 16:49:42;;;;;;;5.07;4.17;;;17.30;45.40;;;;;;4938085;29;20435;-61
2023/02/05 16:52:30;;;;;;;6.17;5.00;;;17.30;45.50;;;;;;4938665;29;20391;-63
2023/02/05 16:55:20;;;;;;;5.10;3.57;;;17.30;45.30;;;;;;4938160;29;20518;-63
2023/02/05 16:57:47;;;;;;;6.43;3.67;;;17.30;45.10;;;;;;4938360;29;20794;-62
2023/02/05 17:00:22;;;;;;;4.90;3.97;;;17.30;45.00;;;;;;4938174;29;20439;-64
2023/02/05 17:02:52;;;;;;;4.90;4.10;;;17.40;45.60;;;;;;4938075;29;20859;-63
2023/02/05 17:05:22;;;;;;;7.20;4.40;;;17.40;45.10;;;;;;4960209;23;20489;-64
2023/02/05 17:08:04;;;;;;;10.23;3.87;;;17.40;45.00;;;;;;4937991;29;20482;-64
2023/02/05 17:10:30;;;;;;;4.20;3.80;;;17.40;44.90;;;;;;4937563;29;20475;-63
2023/02/05 17:12:57;;;;;;;4.97;4.27;;;17.40;45.00;;;;;;4937485;29;20465;-63
2023/02/05 17:15:27;;;;;;;4.63;3.77;;;17.40;45.00;;;;;;4937638;29;20427;-63
2023/02/05 17:17:54;;;;;;;8.10;4.70;;;17.40;45.00;;;;;;4937102;29;20933;-63
2023/02/05 17:20:26;;;;;;;5.90;4.13;;;17.40;44.90;;;;;;4935947;29;20415;-64
2023/02/05 17:23:06;;;;;;;5.50;4.20;;;17.50;44.80;;;;;;4937438;29;20467;-64
2023/02/05 17:25:32;;;;;;;4.60;3.97;;;17.50;44.80;;;;;;4937188;29;20473;-63
2023/02/05 17:27:57;;;;;;;5.80;4.30;;;17.50;44.70;;;;;;4937308;29;20408;-63
2023/02/05 17:30:23;;;;;;;3.97;3.50;;;17.40;44.60;;;;;;4937199;29;20178;-63
2023/02/05 17:32:49;;;;;;;5.23;4.60;;;17.50;44.70;;;;;;4937085;29;20186;-64
2023/02/05 17:35:17;;;;;;;5.47;3.60;;;17.40;44.60;;;;;;4936761;29;20694;-67
2023/02/05 17:37:42;;;;;;;7.67;4.20;;;17.40;45.30;;;;;;4936804;29;20429;-67
2023/02/05 17:40:11;;;;;;;4.67;3.80;;;17.50;45.80;;;;;;4936882;29;20535;-67
2023/02/05 17:42:37;;;;;;;8.47;3.90;;;17.50;46.20;;;;;;4936764;29;20186;-67
2023/02/05 17:45:18;;;;;;;5.80;3.40;;;17.50;45.90;;;;;;4936783;29;20442;-67
2023/02/05 17:47:44;;;;;;;6.90;4.00;;;17.50;45.80;;;;;;4936790;29;20194;-67
2023/02/05 17:50:10;;;;;;;5.00;3.73;;;17.50;45.80;;;;;;4936595;29;20863;-67
2023/02/05 17:52:36;;;;;;;5.73;3.73;;;17.60;45.60;;;;;;4936815;29;20407;-67
2023/02/05 17:55:08;;;;;;;3.93;3.53;;;17.60;45.50;;;;;;4936566;29;20523;-67
2023/02/05 17:57:35;;;;;;;9.43;4.10;;;17.60;45.40;;;;;;4936567;29;20555;-67
2023/02/05 18:00:01;;;;;;;4.17;3.77;;;17.60;45.30;;;;;;4936474;29;20407;-67
2023/02/05 18:02:26;;;;;;;3.90;3.50;;;17.60;45.20;;;;;;4936620;29;20445;-63
2023/02/05 18:04:52;;;;;;;4.77;3.90;;;17.60;45.10;;;;;;4936229;29;20483;-63
2023/02/05 18:07:31;;;;;;;5.40;3.50;;;17.60;45.00;;;;;;4936509;29;20222;-63
2023/02/05 18:10:01;;;;;;;4.20;3.63;;;17.60;44.90;;;;;;4936377;29;20639;-63
2023/02/05 18:12:27;;;;;;;8.10;4.67;;;17.60;44.90;;;;;;4936006;29;20526;-63
2023/02/05 18:14:53;;;;;;;5.13;3.93;;;17.60;44.80;;;;;;4934941;29;20537;-67
2023/02/05 18:17:19;;;;;;;4.47;4.07;;;17.50;44.70;;;;;;4936337;29;20450;-67
2023/02/05 18:19:44;;;;;;;4.67;3.80;;;17.60;44.80;;;;;;4936242;29;20461;-67
2023/02/05 18:22:11;;;;;;;5.90;3.93;;;17.50;44.70;;;;;;4934935;29;20270;-63
2023/02/05 18:24:40;;;;;;;4.97;3.70;;;17.50;44.70;;;;;;4935700;29;20222;-63
2023/02/05 18:27:07;;;;;;;5.17;4.20;;;17.50;44.70;;;;;;4936070;29;20411;-67
2023/02/05 18:29:36;;;;;;;5.40;4.00;;;17.50;44.60;;;;;;4934942;29;20423;-67
2023/02/05 18:32:02;;;;;;;12.43;4.80;;;17.50;44.60;;;;;;4936015;29;20759;-66
2023/02/05 18:34:28;;;;;;;5.70;3.80;;;17.50;44.60;;;;;;4936050;29;20478;-67
2023/02/05 18:36:54;;;;;;;6.23;3.90;;;17.50;44.50;;;;;;4934712;29;20435;-67
2023/02/05 18:39:20;;;;;;;5.43;3.93;;;17.50;44.50;;;;;;4936030;29;20570;-63
2023/02/05 18:41:45;;;;;;;5.17;3.87;;;17.50;44.40;;;;;;4934525;29;20407;-63
2023/02/05 18:44:11;;;;;;;5.30;4.33;;;17.40;44.40;;;;;;4936001;29;20209;-64
2023/02/05 18:46:37;;;;;;;4.90;4.13;;;17.40;44.30;;;;;;4934926;29;20230;-67
2023/02/05 18:49:03;;;;;;;4.33;3.93;;;17.40;44.30;;;;;;4936711;29;20233;-64
2023/02/05 18:51:29;;;;;;;6.37;4.87;;;17.40;44.40;;;;;;4936070;29;20426;-66
2023/02/05 18:53:56;;;;;;;4.50;4.10;;;17.40;44.40;;;;;;4935711;29;20365;-63
2023/02/05 18:56:24;;;;;;;4.90;3.97;;;17.40;44.40;;;;;;4935739;29;20462;-64
2023/02/05 18:58:59;;;;;;;5.73;4.53;;;17.30;44.30;;;;;;4934670;29;20427;-63
2023/02/05 19:01:27;;;;;;;8.13;4.37;;;17.30;44.30;;;;;;4935822;29;20781;-63
2023/02/05 19:03:54;;;;;;;4.63;4.23;;;17.30;44.30;;;;;;4936071;29;20458;-63
2023/02/05 19:06:20;;;;;;;4.60;4.20;;;17.30;44.30;;;;;;4935841;29;20462;-63
2023/02/05 19:08:46;;;;;;;6.03;4.27;;;17.30;44.30;;;;;;4939059;29;20447;-63
2023/02/05 19:11:19;;;;;;;11.17;5.10;;;17.30;44.30;;;;;;4939884;29;20505;-63
2023/02/05 19:13:46;;;;;;;5.60;4.70;;;17.30;44.30;;;;;;4940163;29;20423;-63
2023/02/05 19:16:14;;;;;;;4.97;4.47;;;17.20;44.20;;;;;;4939425;29;20887;-63
2023/02/05 19:18:41;;;;;;;4.60;4.07;;;17.20;44.20;;;;;;4939172;29;20430;-63
2023/02/05 19:21:09;;;;;;;5.63;3.73;;;17.20;44.10;;;;;;4937892;29;20509;-63
2023/02/05 19:23:35;;;;;;;6.03;4.10;;;17.20;44.10;;;;;;4939202;29;20545;-63
2023/02/05 19:26:07;;;;;;;4.67;4.03;;;17.20;44.10;;;;;;4939050;29;20423;-62
2023/02/05 19:28:33;;;;;;;4.50;4.10;;;17.20;44.10;;;;;;4939099;29;20926;-63
2023/02/05 19:31:03;;;;;;;6.40;5.23;;;17.20;44.10;;;;;;4939172;29;20406;-63
2023/02/05 19:33:33;;;;;;;5.83;4.70;;;17.20;44.10;;;;;;4939095;29;20175;-63
2023/02/05 19:36:00;;;;;;;5.30;4.40;;;17.20;44.10;;;;;;4938990;29;20805;-63
2023/02/05 19:38:26;;;;;;;4.33;3.93;;;17.20;44.10;;;;;;4939116;29;20777;-67
2023/02/05 19:40:52;;;;;;;5.30;4.53;;;17.20;44.10;;;;;;4938952;29;20920;-66
2023/02/05 19:43:18;;;;;;;4.67;4.17;;;17.20;44.10;;;;;;4939248;29;20473;-67
2023/02/05 19:45:44;;;;;;;4.53;4.13;;;17.20;44.10;;;;;;4939003;29;20262;-63
2023/02/05 19:48:11;;;;;;;6.73;5.33;;;17.20;44.10;;;;;;4939160;29;20875;-66
2023/02/05 19:50:38;;;;;;;6.07;4.17;;;17.10;44.00;;;;;;4938884;29;20410;-66
2023/02/05 19:53:04;;;;;;;5.30;4.50;;;17.10;44.00;;;;;;4938908;29;20917;-63
2023/02/05 19:55:31;;;;;;;6.67;5.00;;;17.10;44.00;;;;;;4938912;29;20856;-63
2023/02/05 19:57:57;;;;;;;5.93;4.57;;;17.10;44.00;;;;;;4938063;29;20450;-63
2023/02/05 20:00:23;;;;;;;5.30;4.80;;;17.20;44.10;;;;;;4939154;29;20430;-66
2023/02/05 20:02:55;;;;;;;5.03;4.50;;;17.10;44.00;;;;;;4938903;29;20411;-66
2023/02/05 20:05:22;;;;;;;5.13;4.23;;;17.10;44.00;;;;;;4937732;29;20226;-67
2023/02/05 20:07:51;;;;;;;6.50;4.50;;;17.10;44.00;;;;;;4938442;29;20788;-63
2023/02/05 20:10:18;;;;;;;5.57;4.50;;;17.10;44.00;;;;;;4938570;29;20442;-63
2023/02/05 20:12:44;;;;;;;5.57;4.40;;;17.10;44.00;;;;;;4938488;29;20411;-63
2023/02/05 20:15:10;;;;;;;5.00;4.60;;;17.10;44.00;;;;;;4938993;29;20441;-66
2023/02/05 20:17:36;;;;;;;5.07;3.90;;;17.10;44.00;;;;;;4938464;29;20419;-67
2023/02/05 20:20:01;;;;;;;4.80;4.30;;;17.10;44.20;;;;;;4937809;29;20415;-64
2023/02/05 20:22:27;;;;;;;5.43;4.17;;;17.10;44.10;;;;;;4939181;29;20184;-65
2023/02/05 20:24:53;;;;;;;4.40;4.00;;;17.10;44.10;;;;;;4939088;29;20242;-64
2023/02/05 20:27:19;;;;;;;4.57;3.77;;;17.10;44.10;;;;;;4938643;29;20182;-63
2023/02/05 20:32:30;;;;;;;5.20;4.63;;;17.10;44.10;;;;;;4939498;29;20474;-63
2023/02/05 20:34:55;;;;;;;4.97;4.47;;;17.10;44.10;;;;;;4937731;29;20442;-64
2023/02/05 20:37:21;;;;;;;5.40;3.90;;;17.10;44.10;;;;;;4938912;29;20411;-64
2023/02/05 20:39:47;;;;;;;5.10;4.60;;;17.00;44.00;;;;;;4938687;29;20430;-65
2023/02/05 20:42:14;;;;;;;5.50;4.43;;;17.00;44.00;;;;;;4938673;29;20198;-65
2023/02/05 20:44:40;;;;;;;5.80;4.30;;;17.00;44.00;;;;;;4938238;29;20199;-64
2023/02/05 20:47:09;;;;;;;4.73;4.23;;;17.00;44.00;;;;;;4938269;29;20409;-64
2023/02/05 20:49:37;;;;;;;5.63;3.90;;;17.00;44.00;;;;;;4938565;29;20415;-64
2023/02/05 20:52:03;;;;;;;4.17;3.77;;;17.00;44.00;;;;;;4938582;29;20744;-64
2023/02/05 20:54:29;;;;;;;5.33;3.93;;;17.00;44.00;;;;;;4938486;29;20749;-65
2023/02/05 20:56:57;;;;;;;4.77;4.00;;;17.00;44.00;;;;;;4938181;29;20446;-64
2023/02/05 20:59:24;;;;;;;5.50;4.77;;;17.00;44.00;;;;;;4938482;29;20427;-64
2023/02/05 21:01:50;;;;;;;4.53;4.10;;;17.00;44.00;;;;;;4936748;29;20422;-67
2023/02/05 21:04:16;;;;;;;5.33;4.40;;;17.00;44.00;;;;;;4937500;29;20835;-63
2023/02/05 21:06:42;;;;;;;5.03;3.87;;;17.00;44.00;;;;;;4937526;29;20311;-63
2023/02/05 21:09:08;;;;;;;5.17;4.37;;;16.90;43.90;;;;;;4937645;29;20171;-63
2023/02/05 21:11:35;;;;;;;4.80;4.30;;;16.90;43.90;;;;;;4937553;29;20182;-63
2023/02/05 21:14:02;;;;;;;4.00;3.50;;;16.90;43.90;;;;;;4937452;29;20419;-63
2023/02/05 21:16:28;;;;;;;4.93;4.40;;;16.90;44.00;;;;;;4937307;29;20791;-66
2023/02/05 21:18:54;;;;;;;5.00;4.50;;;16.90;43.90;;;;;;4937409;29;20419;-67
2023/02/05 21:21:25;;;;;;;5.50;5.00;;;16.90;43.90;;;;;;4937736;29;20183;-65
2023/02/05 21:23:56;;;;;;;4.53;4.13;;;16.90;43.90;;;;;;4937978;29;20455;-63
2023/02/05 21:26:28;;;;;;;4.70;4.30;;;16.90;43.90;;;;;;4937851;29;20423;-64
2023/02/05 21:29:02;;;;;;;5.63;5.10;;;16.90;43.90;;;;;;4938328;29;20900;-64
2023/02/05 21:31:32;;;;;;;4.50;4.10;;;16.90;43.90;;;;;;4937466;29;20399;-64
2023/02/05 21:34:09;;;;;;;4.67;4.17;;;16.90;43.90;;;;;;4937978;29;20873;-64
2023/02/05 21:36:35;;;;;;;4.90;4.40;;;16.90;43.90;;;;;;4937771;29;20517;-64
2023/02/05 21:39:00;;;;;;;4.67;4.17;;;16.90;43.90;;;;;;4936475;29;20455;-64
2023/02/05 21:41:26;;;;;;;4.70;4.20;;;16.90;44.50;;;;;;4937600;29;20530;-64
2023/02/05 21:43:54;;;;;;;4.90;4.50;;;16.90;44.00;;;;;;4937395;29;20211;-67
2023/02/05 21:46:21;;;;;;;5.53;4.57;;;16.90;43.90;;;;;;4936856;29;20191;-67
2023/02/05 21:48:49;;;;;;;4.60;4.17;;;16.90;43.90;;;;;;4937160;29;20415;-67
2023/02/05 21:51:16;;;;;;;5.00;4.20;;;16.90;43.90;;;;;;4936893;29;20415;-67
2023/02/05 21:53:42;;;;;;;5.13;4.53;;;16.90;43.90;;;;;;4936884;29;20414;-67
2023/02/05 21:56:10;;;;;;;4.30;3.90;;;16.90;43.90;;;;;;4936843;29;20438;-64
2023/02/05 21:58:38;;;;;;;5.20;4.70;;;16.80;43.80;;;;;;4936990;29;20253;-62
2023/02/05 22:01:18;;;;;;;4.57;4.03;;;16.80;43.90;;;;;;4936522;29;20474;-63
2023/02/05 22:03:50;;;;;;;4.90;4.50;;;16.80;43.90;;;;;;4936973;29;20540;-63
2023/02/05 22:06:15;;;;;;;6.70;4.90;;;16.80;44.00;;;;;;4935988;29;20454;-63
2023/02/05 22:08:42;;;;;;;5.23;4.30;;;16.80;44.00;;;;;;4936788;29;20475;-63
2023/02/05 22:11:10;;;;;;;5.60;4.90;;;16.80;44.00;;;;;;4936558;29;20275;-64
2023/02/05 22:13:38;;;;;;;5.20;4.70;;;16.70;44.00;;;;;;4936996;29;20507;-64
2023/02/05 22:16:06;;;;;;;4.60;4.20;;;16.70;44.00;;;;;;4936353;29;20978;-67
2023/02/05 22:18:33;;;;;;;5.27;4.83;;;16.70;44.00;;;;;;4937178;29;20429;-64
2023/02/05 22:21:12;;;;;;;4.53;4.13;;;16.70;44.10;;;;;;4936697;29;20446;-63
